Time;durP1;ratioP1;P1;durP2;ratioP2;P2;SDS_P1;SDS_P2;PMS_P1;PMS_P2;Temp;Humidity;BMP_temperature;BMP_pressure;BME280_temperature;BME280_humidity;BME280_pressure;Samples;Min_cycle;Max_cycle;Signal;HPM_P1;HPM_P2
2022/05/23 00:00:12;;;;;;;18.80;16.35;;;17.50;73.40;;;;;;5024071;28;20046;-90
2022/05/23 00:02:39;;;;;;;18.52;15.10;;;17.40;73.40;;;;;;5020922;28;20046;-90
2022/05/23 00:05:07;;;;;;;20.23;15.23;;;17.40;73.50;;;;;;5019590;28;20046;-90
2022/05/23 00:07:40;;;;;;;23.98;17.20;;;17.40;73.60;;;;;;5031850;28;20045;-89
2022/05/23 00:10:09;;;;;;;25.05;16.20;;;17.40;73.60;;;;;;5028627;28;20092;-90
2022/05/23 00:12:36;;;;;;;21.83;16.98;;;17.40;73.70;;;;;;5019816;28;20516;-90
2022/05/23 00:15:08;;;;;;;20.30;16.05;;;17.40;73.80;;;;;;5048660;28;20111;-90
2022/05/23 00:17:36;;;;;;;19.65;16.30;;;17.40;73.80;;;;;;5059152;28;20041;-90
2022/05/23 00:20:09;;;;;;;18.02;15.27;;;17.40;73.90;;;;;;5059083;28;20044;-90
2022/05/23 00:22:37;;;;;;;20.85;16.40;;;17.40;73.90;;;;;;5055530;28;20053;-90
2022/05/23 00:25:07;;;;;;;20.25;17.15;;;17.40;74.00;;;;;;5067697;28;20080;-91
2022/05/23 00:27:37;;;;;;;20.80;16.98;;;17.40;74.00;;;;;;5071386;28;20044;-88
2022/05/23 00:30:10;;;;;;;23.27;16.55;;;17.40;74.10;;;;;;5064224;28;20072;-90
2022/05/23 00:35:23;;;;;;;20.90;16.92;;;17.40;74.10;;;;;;5060029;28;20449;-91
2022/05/23 00:37:55;;;;;;;20.33;16.15;;;17.40;74.20;;;;;;5057208;28;20056;-90
2022/05/23 00:40:44;;;;;;;22.42;16.55;;;17.40;74.20;;;;;;5055469;28;20499;-90
2022/05/23 00:43:16;;;;;;;19.73;17.10;;;17.40;74.30;;;;;;5053843;28;20098;-90
2022/05/23 00:45:46;;;;;;;25.10;18.40;;;17.40;74.30;;;;;;5075250;28;20076;-90
2022/05/23 00:48:16;;;;;;;23.88;17.73;;;17.40;74.40;;;;;;5075361;28;20044;-90
2022/05/23 00:50:47;;;;;;;20.42;16.98;;;17.30;74.40;;;;;;5071108;28;20102;-90
2022/05/23 00:53:15;;;;;;;24.92;18.23;;;17.40;74.50;;;;;;5046384;28;20051;-90
2022/05/23 00:55:47;;;;;;;22.08;17.58;;;17.30;74.50;;;;;;5059683;28;20094;-90
2022/05/23 00:58:22;;;;;;;24.57;17.63;;;17.40;74.50;;;;;;5059516;28;20581;-91
2022/05/23 01:00:50;;;;;;;24.83;17.98;;;17.30;74.60;;;;;;5059993;28;20057;-89
2022/05/23 01:03:19;;;;;;;18.67;16.55;;;17.30;74.60;;;;;;5063948;28;20103;-88
2022/05/23 01:05:47;;;;;;;23.27;18.67;;;17.30;74.60;;;;;;5063366;28;20463;-89
2022/05/23 01:08:16;;;;;;;21.95;17.83;;;17.30;74.70;;;;;;5063814;28;20044;-88
2022/05/23 01:10:44;;;;;;;22.45;17.83;;;17.30;74.70;;;;;;5060198;28;20177;-90
2022/05/23 01:13:11;;;;;;;23.33;17.45;;;17.30;74.70;;;;;;5059102;28;20391;-90
2022/05/23 01:15:38;;;;;;;22.23;17.05;;;17.30;74.70;;;;;;5062162;28;20053;-89
2022/05/23 01:18:05;;;;;;;25.73;18.05;;;17.30;74.80;;;;;;5063259;28;20057;-89
2022/05/23 01:20:32;;;;;;;24.67;18.92;;;17.30;74.80;;;;;;5063230;28;20048;-89
2022/05/23 01:23:11;;;;;;;24.95;18.58;;;17.30;74.80;;;;;;5061837;28;20049;-90
2022/05/23 01:25:44;;;;;;;23.67;16.55;;;17.30;74.80;;;;;;5058428;28;20041;-89
2022/05/23 01:28:11;;;;;;;24.08;18.90;;;17.30;74.80;;;;;;5071630;28;20102;-89
2022/05/23 01:30:40;;;;;;;22.55;17.88;;;17.30;74.80;;;;;;5062320;28;20499;-90
2022/05/23 01:33:09;;;;;;;21.35;17.67;;;17.20;74.80;;;;;;5063225;28;20123;-89
2022/05/23 01:35:37;;;;;;;25.35;17.95;;;17.20;74.90;;;;;;5062782;28;20041;-89
2022/05/23 01:38:05;;;;;;;24.35;18.33;;;17.20;74.90;;;;;;5062180;28;20544;-89
2022/05/23 01:40:32;;;;;;;26.58;17.90;;;17.20;74.90;;;;;;5058490;28;20165;-88
2022/05/23 01:42:59;;;;;;;25.13;17.67;;;17.20;74.90;;;;;;5060194;28;20098;-89
2022/05/23 01:45:32;;;;;;;26.13;18.80;;;17.20;74.90;;;;;;5062523;28;20449;-88
2022/05/23 01:48:00;;;;;;;25.48;19.15;;;17.20;75.00;;;;;;5062917;28;20049;-89
2022/05/23 01:50:27;;;;;;;24.48;18.77;;;17.20;75.00;;;;;;5062885;28;20094;-90
2022/05/23 01:52:54;;;;;;;26.05;17.83;;;17.20;75.00;;;;;;5059976;28;20048;-90
2022/05/23 01:55:22;;;;;;;26.77;19.80;;;17.20;75.00;;;;;;5057719;28;20469;-89
2022/05/23 01:57:49;;;;;;;23.92;18.50;;;17.20;75.10;;;;;;5059293;28;20045;-90
2022/05/23 02:03:03;;;;;;;22.00;17.17;;;17.10;75.10;;;;;;5069824;28;20106;-89
2022/05/23 02:05:30;;;;;;;23.75;17.33;;;17.10;75.10;;;;;;5071419;28;20143;-89
2022/05/23 02:07:57;;;;;;;24.02;17.55;;;17.10;75.20;;;;;;5060766;28;20058;-90
2022/05/23 02:10:24;;;;;;;22.23;17.15;;;17.10;75.20;;;;;;5057906;28;20507;-89
2022/05/23 02:12:51;;;;;;;22.38;17.33;;;17.10;75.20;;;;;;5060664;28;20048;-89
2022/05/23 02:15:19;;;;;;;23.77;18.27;;;17.10;75.20;;;;;;5061840;28;20458;-90
2022/05/23 02:17:46;;;;;;;24.27;18.13;;;17.00;75.20;;;;;;5062513;28;20072;-89
2022/05/23 02:20:13;;;;;;;23.45;18.10;;;17.00;75.20;;;;;;5062397;28;20396;-89
2022/05/23 02:22:40;;;;;;;25.40;18.40;;;17.00;75.30;;;;;;5057881;28;20048;-89
2022/05/23 02:25:08;;;;;;;24.10;18.20;;;17.00;75.30;;;;;;5058536;28;20075;-90
2022/05/23 02:27:35;;;;;;;24.70;17.25;;;17.00;75.40;;;;;;5073688;28;20052;-89
2022/05/23 02:30:04;;;;;;;25.70;18.42;;;17.00;75.40;;;;;;5066332;28;20057;-89
2022/05/23 02:32:31;;;;;;;23.00;18.65;;;17.00;75.40;;;;;;5062188;28;20060;-91
2022/05/23 02:34:58;;;;;;;19.98;16.63;;;16.90;75.40;;;;;;5060446;28;20045;-88
2022/05/23 02:37:25;;;;;;;23.05;17.45;;;16.90;75.40;;;;;;5057478;28;20573;-89
2022/05/23 02:39:52;;;;;;;23.15;16.35;;;16.90;75.50;;;;;;5060093;28;20083;-89
2022/05/23 02:42:19;;;;;;;23.48;18.25;;;16.90;75.50;;;;;;5070813;28;20075;-89
2022/05/23 02:44:46;;;;;;;22.75;17.88;;;16.90;75.60;;;;;;5068447;28;20053;-89
2022/05/23 02:47:13;;;;;;;24.45;17.65;;;16.90;75.60;;;;;;5061941;28;20403;-89
2022/05/23 02:49:40;;;;;;;22.48;18.50;;;16.90;75.60;;;;;;5056079;28;20445;-90
2022/05/23 02:52:07;;;;;;;22.80;17.40;;;16.90;75.70;;;;;;5057699;28;20083;-90
2022/05/23 02:54:34;;;;;;;23.90;17.38;;;16.90;75.70;;;;;;5061579;28;20052;-88
2022/05/23 02:57:01;;;;;;;22.23;17.55;;;16.90;75.70;;;;;;5042978;28;20060;-89
2022/05/23 02:59:28;;;;;;;24.98;17.35;;;16.90;75.80;;;;;;5061760;28;20036;-89
2022/05/23 03:04:42;;;;;;;22.45;17.98;;;16.90;75.80;;;;;;5057288;28;20098;-89
2022/05/23 03:07:10;;;;;;;23.13;17.55;;;16.90;75.80;;;;;;5073454;28;20040;-90
2022/05/23 03:09:37;;;;;;;21.40;16.73;;;16.90;75.90;;;;;;5061033;28;20045;-90
2022/05/23 03:12:04;;;;;;;21.77;16.65;;;16.90;75.90;;;;;;5060331;28;20053;-89
2022/05/23 03:14:31;;;;;;;24.27;18.95;;;16.90;75.90;;;;;;5061221;28;20053;-89
2022/05/23 03:17:04;;;;;;;21.95;17.60;;;16.90;75.90;;;;;;5059883;28;20040;-89
2022/05/23 03:19:34;;;;;;;23.00;18.40;;;16.90;75.90;;;;;;5056607;28;20040;-91
2022/05/23 03:27:32;;;;;;;22.02;17.30;;;16.90;76.00;;;;;;5061135;28;20049;-89
2022/05/23 03:29:59;;;;;;;28.40;19.73;;;16.80;76.00;;;;;;5061121;28;20053;-89
2022/05/23 03:32:26;;;;;;;25.70;18.73;;;16.80;76.10;;;;;;5059755;28;20174;-89
2022/05/23 03:34:53;;;;;;;22.67;18.85;;;16.90;76.10;;;;;;5058088;28;20044;-90
2022/05/23 03:37:21;;;;;;;20.35;18.13;;;16.80;76.10;;;;;;5071801;28;20051;-89
2022/05/23 03:39:48;;;;;;;22.75;17.75;;;16.80;76.20;;;;;;5059303;28;20057;-90
2022/05/23 03:42:15;;;;;;;20.73;16.55;;;16.80;76.20;;;;;;5068786;28;20502;-89
2022/05/23 03:44:42;;;;;;;23.13;19.05;;;16.80;76.20;;;;;;5067853;28;20118;-89
2022/05/23 03:47:09;;;;;;;22.13;17.90;;;16.80;76.30;;;;;;5059635;28;20052;-89
2022/05/23 03:49:36;;;;;;;22.08;18.27;;;16.80;76.30;;;;;;5055939;28;20052;-89
2022/05/23 03:52:04;;;;;;;21.88;17.58;;;16.80;76.30;;;;;;5056219;28;20056;-88
2022/05/23 03:54:31;;;;;;;24.15;17.38;;;16.80;76.40;;;;;;5060014;28;20115;-89
2022/05/23 03:57:03;;;;;;;22.98;17.40;;;16.80;76.40;;;;;;5060062;28;20052;-89
2022/05/23 03:59:30;;;;;;;27.83;20.00;;;16.80;76.40;;;;;;5062554;28;20580;-89
2022/05/23 04:01:58;;;;;;;24.15;19.05;;;16.80;76.50;;;;;;5071259;28;20094;-88
2022/05/23 04:04:27;;;;;;;22.30;18.45;;;16.80;76.50;;;;;;5055595;28;20049;-88
2022/05/23 04:06:59;;;;;;;27.05;19.77;;;16.80;76.50;;;;;;5057342;28;20683;-88
2022/05/23 04:09:28;;;;;;;24.63;19.67;;;16.80;76.50;;;;;;5059984;28;20049;-89
2022/05/23 04:11:56;;;;;;;25.15;19.25;;;16.80;76.60;;;;;;5059497;28;20076;-88
2022/05/23 04:14:23;;;;;;;27.38;18.77;;;16.80;76.60;;;;;;5059990;28;20056;-89
2022/05/23 04:16:50;;;;;;;21.60;18.08;;;16.80;76.60;;;;;;5056499;28;20051;-89
2022/05/23 04:19:17;;;;;;;24.30;19.77;;;16.80;76.60;;;;;;5055258;28;20053;-89
2022/05/23 04:21:46;;;;;;;20.63;18.38;;;16.70;76.60;;;;;;5059010;28;20049;-89
2022/05/23 04:24:15;;;;;;;22.30;19.15;;;16.80;76.70;;;;;;5059916;28;20053;-89
2022/05/23 04:26:42;;;;;;;27.30;21.63;;;16.80;76.70;;;;;;5060049;28;20053;-89
2022/05/23 04:29:10;;;;;;;27.15;21.33;;;16.80;76.70;;;;;;5059919;28;20048;-89
2022/05/23 04:31:37;;;;;;;27.63;19.75;;;16.80;76.80;;;;;;5055463;28;20040;-88
2022/05/23 04:36:50;;;;;;;27.50;21.48;;;16.70;76.80;;;;;;5056452;28;20055;-88
2022/05/23 04:39:18;;;;;;;24.67;19.95;;;16.70;76.80;;;;;;5068856;28;20150;-89
2022/05/23 04:41:45;;;;;;;25.67;21.02;;;16.70;76.90;;;;;;5066760;28;20430;-89
2022/05/23 04:44:12;;;;;;;24.27;21.10;;;16.70;76.90;;;;;;5060149;28;20052;-88
2022/05/23 04:49:41;;;;;;;28.42;22.50;;;16.70;76.90;;;;;;5069427;28;20406;-89
2022/05/23 04:52:12;;;;;;;28.70;21.60;;;16.70;77.00;;;;;;5068215;28;20049;-89
2022/05/23 04:54:41;;;;;;;24.02;20.60;;;16.70;77.00;;;;;;5058939;28;20053;-89
2022/05/23 04:57:10;;;;;;;27.55;21.25;;;16.70;77.00;;;;;;5059937;28;20052;-89
2022/05/23 04:59:37;;;;;;;29.85;22.80;;;16.60;77.10;;;;;;5059557;28;20041;-90
2022/05/23 05:02:05;;;;;;;26.52;20.83;;;16.70;77.10;;;;;;5058914;28;20044;-89
2022/05/23 05:04:32;;;;;;;27.45;21.25;;;16.70;77.10;;;;;;5055164;28;20041;-90
2022/05/23 05:07:00;;;;;;;31.27;23.48;;;16.70;77.20;;;;;;5071743;28;20080;-88
2022/05/23 05:09:27;;;;;;;25.20;20.67;;;16.70;77.20;;;;;;5060338;28;20094;-89
2022/05/23 05:11:54;;;;;;;28.67;20.45;;;16.60;77.20;;;;;;5059674;28;20052;-89
2022/05/23 05:14:20;;;;;;;28.45;21.15;;;16.70;77.20;;;;;;5059265;28;20053;-89
2022/05/23 05:16:48;;;;;;;27.42;20.55;;;16.70;77.30;;;;;;5056374;28;20086;-90
2022/05/23 05:19:15;;;;;;;26.10;20.80;;;16.60;77.30;;;;;;5071303;28;20502;-90
2022/05/23 05:21:42;;;;;;;34.65;23.80;;;16.70;77.30;;;;;;5070553;28;20568;-88
2022/05/23 05:24:14;;;;;;;25.85;20.00;;;16.60;77.30;;;;;;5045408;28;20049;-89
2022/05/23 05:26:41;;;;;;;27.33;20.95;;;16.70;77.40;;;;;;5059670;28;20049;-90
2022/05/23 05:29:08;;;;;;;22.95;19.65;;;16.70;77.40;;;;;;5061702;28;20048;-88
2022/05/23 05:31:50;;;;;;;24.30;20.60;;;16.70;77.50;;;;;;5058450;28;20036;-89
2022/05/23 05:34:23;;;;;;;22.83;19.50;;;16.70;77.50;;;;;;5071895;28;20097;-89
2022/05/23 05:37:02;;;;;;;30.77;22.58;;;16.70;77.50;;;;;;5059112;28;20457;-90
2022/05/23 05:39:31;;;;;;;24.77;20.98;;;16.70;77.50;;;;;;5063310;28;20399;-89
2022/05/23 05:42:26;;;;;;;31.02;22.02;;;16.70;77.60;;;;;;5063103;28;20053;-89
2022/05/23 05:45:05;;;;;;;34.38;22.58;;;16.80;77.60;;;;;;5055987;28;20049;-90
2022/05/23 05:47:35;;;;;;;29.27;22.15;;;16.80;77.60;;;;;;5062991;28;20048;-90
2022/05/23 05:50:08;;;;;;;26.83;21.67;;;16.80;77.60;;;;;;5061554;28;20560;-89
2022/05/23 05:52:35;;;;;;;24.20;20.88;;;16.80;77.60;;;;;;5057773;28;20052;-89
2022/05/23 05:55:05;;;;;;;29.98;22.60;;;16.80;77.70;;;;;;5059548;28;20064;-89
2022/05/23 05:57:32;;;;;;;28.77;23.13;;;16.80;77.60;;;;;;5073831;28;20049;-90
2022/05/23 05:59:59;;;;;;;25.92;21.92;;;16.90;77.70;;;;;;5067033;28;20454;-89
2022/05/23 06:02:26;;;;;;;27.05;20.63;;;16.90;77.70;;;;;;5062628;28;20040;-88
2022/05/23 06:04:53;;;;;;;27.65;22.73;;;16.90;77.70;;;;;;5059832;28;20040;-88
2022/05/23 06:12:58;;;;;;;25.08;19.23;;;16.90;77.60;;;;;;5058632;28;20092;-88
2022/05/23 06:15:26;;;;;;;27.17;22.17;;;16.90;77.60;;;;;;5062186;28;20057;-88
2022/05/23 06:17:52;;;;;;;24.88;18.33;;;16.90;77.60;;;;;;5062043;28;20049;-88
2022/05/23 06:20:20;;;;;;;28.00;21.73;;;16.90;77.60;;;;;;5061954;28;20463;-88
2022/05/23 06:22:47;;;;;;;29.23;21.80;;;16.90;77.60;;;;;;5054578;28;20466;-88
2022/05/23 06:25:14;;;;;;;24.48;20.40;;;16.90;77.70;;;;;;5034085;28;20429;-88
2022/05/23 06:27:41;;;;;;;25.25;19.42;;;16.90;77.70;;;;;;5043000;28;20056;-87
2022/05/23 06:30:11;;;;;;;29.02;21.20;;;17.00;77.70;;;;;;5062015;28;20056;-87
2022/05/23 06:32:38;;;;;;;28.30;21.25;;;17.00;77.70;;;;;;5061194;28;20191;-88
2022/05/23 06:35:09;;;;;;;26.20;19.52;;;17.00;77.80;;;;;;5059502;28;20177;-88
2022/05/23 06:37:38;;;;;;;29.65;22.23;;;17.00;77.80;;;;;;5072404;28;20406;-88
2022/05/23 06:40:08;;;;;;;30.40;23.00;;;17.00;77.80;;;;;;5057475;28;20044;-87
2022/05/23 06:42:36;;;;;;;28.70;21.92;;;17.00;77.80;;;;;;5073033;28;20082;-87
2022/05/23 06:45:05;;;;;;;29.00;23.00;;;17.10;77.90;;;;;;5065857;28;20510;-88
2022/05/23 06:47:33;;;;;;;29.42;24.30;;;17.10;77.90;;;;;;5061287;28;20115;-88
2022/05/23 06:49:59;;;;;;;33.55;24.58;;;17.10;77.90;;;;;;5059410;28;20052;-88
2022/05/23 06:52:26;;;;;;;29.17;23.13;;;17.10;77.90;;;;;;5057152;28;20106;-87
2022/05/23 06:54:54;;;;;;;32.85;23.33;;;17.10;78.00;;;;;;5059329;28;20052;-87
2022/05/23 06:57:28;;;;;;;32.00;24.65;;;17.20;78.00;;;;;;5061739;28;20080;-86
2022/05/23 06:59:55;;;;;;;27.00;21.88;;;17.10;78.00;;;;;;5061455;28;20514;-87
2022/05/23 07:02:22;;;;;;;29.98;22.73;;;17.20;78.00;;;;;;5061261;28;20575;-88
2022/05/23 07:13:06;;;;;;;31.25;23.75;;;17.30;77.90;;;;;;5053113;28;20045;-88
2022/05/23 07:15:36;;;;;;;29.13;22.20;;;17.20;77.90;;;;;;5068049;28;20588;-88
2022/05/23 07:18:05;;;;;;;27.75;22.08;;;17.30;77.90;;;;;;5068118;28;20056;-88
2022/05/23 07:20:33;;;;;;;31.60;23.30;;;17.30;77.90;;;;;;5068352;28;20056;-88
2022/05/23 07:23:00;;;;;;;34.17;25.23;;;17.30;78.00;;;;;;5068520;28;20044;-88
2022/05/23 07:25:27;;;;;;;34.10;26.90;;;17.30;78.00;;;;;;5070119;28;20106;-88
2022/05/23 07:27:53;;;;;;;29.58;23.50;;;17.40;78.10;;;;;;5070408;28;20468;-88
2022/05/23 07:30:21;;;;;;;32.08;26.83;;;17.40;78.20;;;;;;5067652;28;20487;-87
2022/05/23 07:32:49;;;;;;;28.15;24.35;;;17.40;78.30;;;;;;5067847;28;20048;-89
2022/05/23 07:35:17;;;;;;;35.28;27.05;;;17.40;78.40;;;;;;5067855;28;20461;-88
2022/05/23 07:37:44;;;;;;;33.78;25.33;;;17.40;78.40;;;;;;5067740;28;20048;-87
2022/05/23 07:40:12;;;;;;;41.40;26.88;;;17.40;78.40;;;;;;5071430;28;20048;-88
2022/05/23 07:42:44;;;;;;;38.22;25.75;;;17.40;78.30;;;;;;5071211;28;20498;-88
2022/05/23 07:45:12;;;;;;;35.35;26.80;;;17.50;78.30;;;;;;5069111;28;20403;-88
2022/05/23 07:47:40;;;;;;;40.55;27.70;;;17.50;78.30;;;;;;5066693;28;20086;-88
2022/05/23 07:50:09;;;;;;;34.97;25.83;;;17.60;78.30;;;;;;5067899;28;20101;-88
2022/05/23 07:52:36;;;;;;;32.67;25.23;;;17.50;78.30;;;;;;5067251;28;20048;-88
2022/05/23 08:00:38;;;;;;;43.15;30.98;;;17.60;78.30;;;;;;5066830;28;20049;-88
2022/05/23 08:03:14;;;;;;;41.75;30.27;;;17.60;78.40;;;;;;5069821;28;20576;-88
2022/05/23 08:05:42;;;;;;;47.83;31.15;;;17.60;78.40;;;;;;5067734;28;20052;-90
2022/05/23 08:08:08;;;;;;;46.17;31.90;;;17.70;78.50;;;;;;5066843;28;20179;-87
2022/05/23 08:10:36;;;;;;;37.85;26.65;;;17.70;78.50;;;;;;5050471;28;20098;-88
2022/05/23 08:13:09;;;;;;;42.72;31.20;;;17.70;78.50;;;;;;5071279;28;20231;-88
2022/05/23 08:15:38;;;;;;;37.90;30.83;;;17.70;78.50;;;;;;5066561;28;20418;-88
2022/05/23 08:18:08;;;;;;;38.67;31.95;;;17.70;78.50;;;;;;5066931;28;20052;-89
2022/05/23 08:20:36;;;;;;;34.42;27.13;;;17.70;78.40;;;;;;5067661;28;20044;-89
2022/05/23 08:23:04;;;;;;;42.78;31.33;;;17.70;78.40;;;;;;5067752;28;20040;-89
2022/05/23 08:25:30;;;;;;;42.60;32.75;;;17.80;78.40;;;;;;5068888;28;20091;-90
2022/05/23 08:27:57;;;;;;;34.13;28.27;;;17.80;78.40;;;;;;5070757;28;20110;-89
2022/05/23 08:30:24;;;;;;;36.20;27.50;;;17.80;78.30;;;;;;5066647;28;20098;-89
2022/05/23 08:32:51;;;;;;;46.80;30.15;;;17.80;78.20;;;;;;5068969;28;20045;-90
2022/05/23 08:35:19;;;;;;;35.53;30.05;;;17.80;78.20;;;;;;5067380;28;20048;-89
2022/05/23 08:37:52;;;;;;;35.93;25.93;;;17.80;78.20;;;;;;5067427;28;20124;-89
2022/05/23 08:40:19;;;;;;;34.60;25.98;;;17.90;78.20;;;;;;5069731;28;20322;-90
2022/05/23 08:42:55;;;;;;;37.95;29.23;;;17.90;78.20;;;;;;5070987;28;20044;-89
2022/05/23 08:45:25;;;;;;;31.83;24.48;;;17.90;78.30;;;;;;5068503;28;20380;-89
2022/05/23 08:48:15;;;;;;;35.05;26.60;;;17.90;78.30;;;;;;5067465;28;20128;-88
2022/05/23 08:51:06;;;;;;;31.70;25.55;;;17.90;78.30;;;;;;5067362;28;20403;-89
2022/05/23 08:53:56;;;;;;;34.67;26.33;;;17.90;78.30;;;;;;5067166;28;20098;-88
2022/05/23 08:56:26;;;;;;;38.67;27.33;;;17.90;78.30;;;;;;5067387;28;20052;-89
2022/05/23 08:58:56;;;;;;;27.95;22.90;;;17.90;78.20;;;;;;5067815;28;20052;-89
2022/05/23 09:01:52;;;;;;;30.83;22.92;;;17.90;78.10;;;;;;5069673;28;20048;-89
2022/05/23 09:04:48;;;;;;;33.20;24.23;;;18.00;78.00;;;;;;5070474;28;20040;-88
2022/05/23 09:07:41;;;;;;;33.42;24.55;;;18.00;77.90;;;;;;5070773;28;20064;-89
2022/05/23 09:10:21;;;;;;;32.25;24.85;;;18.00;77.90;;;;;;4955252;29;20047;-89
2022/05/23 09:12:52;;;;;;;34.05;23.45;;;18.00;77.80;;;;;;4954890;29;20056;-89
2022/05/23 09:15:20;;;;;;;29.98;22.35;;;18.10;77.70;;;;;;4950349;29;20099;-89
2022/05/23 09:18:03;;;;;;;26.52;21.35;;;18.10;77.70;;;;;;4953684;29;20062;-89
2022/05/23 09:20:42;;;;;;;28.25;20.75;;;18.10;77.60;;;;;;4950982;29;20466;-89
2022/05/23 09:23:13;;;;;;;28.63;21.23;;;18.10;77.50;;;;;;4950880;29;20071;-90
2022/05/23 09:25:54;;;;;;;26.95;21.83;;;18.10;77.50;;;;;;4937482;29;20051;-90
2022/05/23 09:28:36;;;;;;;31.75;22.98;;;18.10;77.40;;;;;;4952952;29;20051;-89
2022/05/23 09:31:34;;;;;;;28.80;22.25;;;18.10;77.30;;;;;;4954784;29;20055;-90
2022/05/23 09:34:01;;;;;;;34.65;24.65;;;18.20;77.30;;;;;;4954505;29;20551;-94
2022/05/23 09:36:38;;;;;;;29.70;24.70;;;18.10;77.20;;;;;;4938699;29;20451;-92
2022/05/23 09:39:10;;;;;;;33.22;24.98;;;18.10;77.30;;;;;;4950796;29;20102;-93
2022/05/23 09:47:44;;;;;;;30.35;22.45;;;18.10;77.40;;;;;;5031429;28;20055;-95
2022/05/23 09:50:31;;;;;;;31.45;22.13;;;18.00;77.40;;;;;;5067327;28;20064;-94
2022/05/23 09:53:24;;;;;;;27.88;21.40;;;18.00;77.40;;;;;;5062035;28;20502;-94
2022/05/23 09:56:40;;;;;;;27.23;21.58;;;18.00;77.50;;;;;;5069128;28;20052;-93
2022/05/23 09:59:20;;;;;;;27.20;21.00;;;17.90;77.50;;;;;;5061866;28;20098;-93
2022/05/23 10:01:47;;;;;;;26.33;21.45;;;17.90;77.70;;;;;;5055618;28;20045;-94
2022/05/23 10:04:17;;;;;;;30.25;20.85;;;17.90;77.70;;;;;;5056185;28;20542;-93
2022/05/23 10:06:48;;;;;;;25.08;18.75;;;17.90;77.80;;;;;;5068340;28;20102;-95
2022/05/23 10:09:28;;;;;;;23.55;17.83;;;17.80;77.90;;;;;;5075646;28;20084;-94
2022/05/23 10:11:59;;;;;;;23.80;18.00;;;17.80;77.90;;;;;;5082542;28;20036;-95
2022/05/23 10:14:44;;;;;;;25.45;16.75;;;17.80;78.00;;;;;;5093414;28;20056;-96
2022/05/23 10:17:34;;;;;;;25.48;16.38;;;17.70;78.00;;;;;;5167160;22;20676;-96
2022/05/23 10:20:28;;;;;;;20.35;15.23;;;17.70;78.00;;;;;;5017051;28;20416;-96
2022/05/23 10:23:01;;;;;;;19.77;14.63;;;17.60;78.00;;;;;;5003441;28;20085;-95
2022/05/23 10:25:55;;;;;;;19.80;13.07;;;17.60;78.00;;;;;;5001559;28;20552;-94
2022/05/23 10:28:59;;;;;;;21.97;13.83;;;17.50;78.00;;;;;;5014896;28;20054;-94
2022/05/23 10:31:32;;;;;;;18.67;13.20;;;17.50;78.10;;;;;;4996249;28;20054;-93
2022/05/23 10:34:16;;;;;;;22.95;13.38;;;17.40;78.20;;;;;;5014510;28;20080;-94
2022/05/23 10:36:46;;;;;;;23.33;13.98;;;17.40;78.30;;;;;;4995855;28;20530;-92
2022/05/23 10:42:26;;;;;;;18.17;13.35;;;17.40;78.60;;;;;;5014093;28;20104;-91
2022/05/23 10:45:25;;;;;;;15.70;11.63;;;17.40;78.90;;;;;;5015034;28;20111;-93
2022/05/23 10:47:56;;;;;;;12.82;10.77;;;17.30;79.10;;;;;;5028736;28;20080;-94
2022/05/23 10:50:38;;;;;;;16.15;11.43;;;17.40;79.30;;;;;;5015870;28;20054;-94
2022/05/23 10:53:20;;;;;;;18.58;11.13;;;17.30;79.40;;;;;;5014049;28;20301;-95
2022/05/23 10:56:15;;;;;;;16.70;11.60;;;17.30;79.50;;;;;;5018651;28;20469;-93
2022/05/23 10:58:59;;;;;;;17.38;12.30;;;17.30;79.60;;;;;;4995502;28;20051;-92
2022/05/23 11:01:55;;;;;;;16.48;11.43;;;17.40;79.60;;;;;;4997106;28;20050;-92
2022/05/23 11:04:38;;;;;;;16.17;12.73;;;17.40;79.60;;;;;;4995465;28;20104;-92
2022/05/23 11:07:49;;;;;;;20.63;11.85;;;17.40;79.60;;;;;;5010450;28;20049;-92
2022/05/23 11:10:26;;;;;;;17.17;12.50;;;17.30;79.60;;;;;;4934845;29;20082;-94
2022/05/23 11:13:26;;;;;;;17.58;13.60;;;17.30;79.60;;;;;;4935023;29;20498;-94
2022/05/23 11:16:07;;;;;;;15.90;12.23;;;17.30;79.60;;;;;;4916979;29;20048;-93
2022/05/23 11:18:53;;;;;;;16.13;12.40;;;17.30;79.50;;;;;;4916601;29;20099;-93
2022/05/23 11:21:49;;;;;;;17.55;13.93;;;17.30;79.50;;;;;;4919238;29;20487;-95
2022/05/23 11:24:22;;;;;;;16.52;13.15;;;17.30;79.50;;;;;;4932648;28;20075;-94
2022/05/23 11:26:54;;;;;;;16.87;13.50;;;17.30;79.40;;;;;;4936882;29;20164;-95
2022/05/23 11:37:50;;;;;;;14.50;11.77;;;17.20;79.40;;;;;;5387943;22;20067;-95
2022/05/23 11:40:26;;;;;;;14.45;11.65;;;17.20;79.40;;;;;;5073766;28;20048;-95
2022/05/23 11:42:57;;;;;;;15.23;11.23;;;17.10;79.40;;;;;;5055972;28;20049;-95
2022/05/23 11:51:41;;;;;;;16.88;11.73;;;17.00;79.40;;;;;;5051629;28;20025;-96
2022/05/23 11:54:32;;;;;;;15.48;11.52;;;17.00;79.50;;;;;;5032974;28;20108;-96
2022/05/23 11:57:02;;;;;;;13.55;10.80;;;17.00;79.50;;;;;;5040118;28;20111;-94
2022/05/23 11:59:29;;;;;;;13.23;10.52;;;16.90;79.50;;;;;;5056002;28;20056;-95
2022/05/23 12:07:37;;;;;;;21.15;10.95;;;16.90;79.60;;;;;;5671973;22;20067;-95
2022/05/23 12:10:24;;;;;;;12.73;10.25;;;16.90;79.70;;;;;;5223419;22;20132;-95
2022/05/23 12:12:57;;;;;;;14.15;10.10;;;16.90;79.80;;;;;;5409250;23;20126;-95
2022/05/23 12:16:20;;;;;;;15.90;11.80;;;16.90;79.80;;;;;;5016046;28;20045;-96
2022/05/23 12:18:48;;;;;;;15.60;11.30;;;16.90;79.90;;;;;;4947121;29;20058;-94
2022/05/23 12:21:43;;;;;;;17.05;13.15;;;16.90;79.90;;;;;;4938153;29;20491;-95
2022/05/23 12:24:31;;;;;;;17.02;11.82;;;16.90;80.00;;;;;;4934869;29;20063;-96
2022/05/23 12:27:43;;;;;;;16.00;13.38;;;16.80;80.10;;;;;;4934960;29;20080;-96
2022/05/23 12:30:22;;;;;;;15.10;11.95;;;16.90;80.20;;;;;;4878383;29;20057;-94
2022/05/23 12:32:58;;;;;;;17.63;11.00;;;16.80;80.20;;;;;;4878885;29;20083;-94
2022/05/23 12:35:51;;;;;;;15.55;11.60;;;16.80;80.30;;;;;;4864081;29;20101;-94
2022/05/23 12:38:23;;;;;;;16.33;12.45;;;16.80;80.30;;;;;;4886240;29;20484;-94
2022/05/23 12:41:20;;;;;;;14.05;11.68;;;16.80;80.30;;;;;;4897522;29;20064;-95
2022/05/23 12:44:12;;;;;;;16.98;12.77;;;16.80;80.40;;;;;;4896283;29;20187;-94
2022/05/23 12:46:38;;;;;;;16.90;12.50;;;16.80;80.40;;;;;;4878095;29;20060;-95
2022/05/23 12:49:26;;;;;;;14.60;12.10;;;16.80;80.40;;;;;;4859328;29;20053;-96
2022/05/23 12:52:12;;;;;;;15.98;13.25;;;16.80;80.50;;;;;;4905896;29;20052;-95
2022/05/23 12:55:17;;;;;;;15.73;12.25;;;16.90;80.50;;;;;;4919537;29;20152;-94
2022/05/23 12:57:56;;;;;;;20.40;14.02;;;16.80;80.50;;;;;;4944487;29;20047;-95
2022/05/23 13:00:31;;;;;;;16.30;13.73;;;16.80;80.60;;;;;;4947142;29;20059;-94
2022/05/23 13:03:22;;;;;;;17.33;13.27;;;16.80;80.60;;;;;;4949138;29;20062;-95
2022/05/23 13:06:16;;;;;;;16.45;13.63;;;16.80;80.60;;;;;;4948355;29;20052;-95
2022/05/23 13:08:56;;;;;;;17.97;14.37;;;16.80;80.60;;;;;;5009493;28;20082;-95
2022/05/23 13:11:44;;;;;;;17.90;14.05;;;16.80;80.60;;;;;;4997654;28;20034;-96
2022/05/23 13:14:11;;;;;;;18.48;13.98;;;16.80;80.60;;;;;;5376193;22;20048;-95
2022/05/23 13:16:40;;;;;;;20.10;14.43;;;16.80;80.60;;;;;;5053813;28;20061;-96
2022/05/23 13:22:13;;;;;;;14.77;11.60;;;16.80;80.60;;;;;;5067690;28;20049;-96
2022/05/23 13:24:54;;;;;;;14.55;12.05;;;16.80;80.60;;;;;;5043561;28;20053;-95
2022/05/23 13:27:28;;;;;;;14.27;11.05;;;16.80;80.60;;;;;;5057626;28;20075;-94
2022/05/23 13:29:58;;;;;;;13.88;10.63;;;16.80;80.70;;;;;;5052913;28;20431;-95
2022/05/23 13:32:28;;;;;;;13.48;10.32;;;16.80;80.70;;;;;;5055974;28;20048;-95
2022/05/23 13:34:59;;;;;;;12.77;10.00;;;16.80;80.80;;;;;;5059189;28;20489;-94
2022/05/23 13:37:35;;;;;;;12.48;9.25;;;16.80;80.80;;;;;;5053862;28;20044;-95
2022/05/23 13:40:14;;;;;;;12.27;8.85;;;16.80;80.90;;;;;;5053535;28;20194;-94
2022/05/23 13:42:42;;;;;;;10.45;8.20;;;16.80;80.90;;;;;;5054306;28;20060;-95
2022/05/23 13:45:18;;;;;;;11.82;7.57;;;16.80;80.90;;;;;;5060043;28;20079;-95
2022/05/23 13:48:03;;;;;;;10.90;7.03;;;16.80;80.90;;;;;;5063638;28;20114;-96
2022/05/23 13:50:35;;;;;;;13.15;7.28;;;16.80;80.90;;;;;;5055768;28;20045;-94
2022/05/23 13:53:07;;;;;;;11.80;6.68;;;16.80;80.90;;;;;;5057061;28;20049;-95
2022/05/23 13:55:46;;;;;;;10.35;6.32;;;16.80;80.90;;;;;;5038998;28;20076;-95
2022/05/23 13:58:17;;;;;;;9.05;6.43;;;16.80;81.00;;;;;;5037319;28;20045;-94
2022/05/23 14:00:57;;;;;;;9.07;5.93;;;16.80;81.00;;;;;;5053590;28;20053;-95
2022/05/23 14:03:31;;;;;;;8.50;6.10;;;16.80;81.00;;;;;;5052035;28;20084;-94
2022/05/23 14:06:00;;;;;;;8.68;5.72;;;16.80;81.00;;;;;;5044290;28;20057;-94
2022/05/23 14:08:37;;;;;;;11.93;5.95;;;16.80;81.10;;;;;;5035755;28;20041;-93